Terminal Aerodrome Forecast
Issued by NWS Charleston, WV

Current Version | Previous Version | Text Only | Print | Product List | Glossary Off
Versions: 1 2 3 4 5 6 7 8 9 10 11 12 13 14 15 16 17 18 19 20 21 22

254
FTUS41 KRLX 290909 AAA
TAFHTS
TAF AMD
KHTS 290909Z 2909/3006 00000KT 3SM BR BKN250
     FM291200 21004KT P6SM BKN200
     FM291600 21005KT P6SM VCTS BKN060CB
     FM291900 21004KT P6SM BKN200=

USA.gov is the U.S. government's official web portal to all federal, state and local government web resources and services.